Time;durP1;ratioP1;P1;durP2;ratioP2;P2;SDS_P1;SDS_P2;PMS_P1;PMS_P2;Temp;Humidity;BMP_temperature;BMP_pressure;BME280_temperature;BME280_humidity;BME280_pressure;Samples;Min_cycle;Max_cycle;Signal;HPM_P1;HPM_P2
2023/05/03 00:02:18;;;;;;;8.38;5.75;;;11.60;99.90;;;;;;5007042;28;20209;-86
2023/05/03 00:04:46;;;;;;;7.07;5.10;;;11.70;99.90;;;;;;5006736;28;20216;-86
2023/05/03 00:07:13;;;;;;;8.40;4.82;;;11.50;99.90;;;;;;4999640;28;20209;-82
2023/05/03 00:09:40;;;;;;;10.25;5.20;;;11.40;99.90;;;;;;5004616;28;20245;-83
2023/05/03 00:12:07;;;;;;;6.22;4.85;;;11.40;99.90;;;;;;4989299;28;20213;-84
2023/05/03 00:14:34;;;;;;;5.45;3.80;;;11.20;99.90;;;;;;4987357;28;20521;-82
2023/05/03 00:17:01;;;;;;;8.95;5.43;;;11.20;99.90;;;;;;4983701;28;20490;-84
2023/05/03 00:19:32;;;;;;;7.82;4.47;;;11.20;99.90;;;;;;4997724;28;20201;-81
2023/05/03 00:22:05;;;;;;;12.90;4.75;;;11.20;99.90;;;;;;5007787;28;20261;-84
2023/05/03 00:24:33;;;;;;;8.93;4.30;;;11.10;99.90;;;;;;5000857;28;20214;-85
2023/05/03 00:27:02;;;;;;;4.47;4.07;;;11.20;99.90;;;;;;4989327;28;20197;-88
2023/05/03 00:29:29;;;;;;;7.00;4.78;;;11.10;99.90;;;;;;4986146;28;20214;-87
2023/05/03 00:31:56;;;;;;;6.50;3.90;;;11.10;99.90;;;;;;5005532;28;20248;-86
2023/05/03 00:34:24;;;;;;;9.18;4.75;;;11.20;99.90;;;;;;5004661;28;20214;-87
2023/05/03 00:36:51;;;;;;;11.65;5.53;;;11.30;99.90;;;;;;5013204;28;20284;-86
2023/05/03 00:39:18;;;;;;;5.07;4.20;;;11.30;99.90;;;;;;5004112;28;20220;-84
2023/05/03 00:41:46;;;;;;;10.40;4.40;;;11.20;99.90;;;;;;5005854;28;20214;-84
2023/05/03 00:44:14;;;;;;;11.02;4.10;;;11.20;99.90;;;;;;4984871;28;20209;-82
2023/05/03 00:46:43;;;;;;;7.03;4.00;;;11.20;99.90;;;;;;5000709;28;20284;-79
2023/05/03 00:49:10;;;;;;;5.15;3.28;;;11.10;99.90;;;;;;5001677;28;20206;-86
2023/05/03 00:51:38;;;;;;;5.00;3.88;;;11.10;99.90;;;;;;5004617;28;20257;-86
2023/05/03 00:54:07;;;;;;;5.55;4.03;;;11.00;99.90;;;;;;5006781;28;20210;-85
2023/05/03 00:56:34;;;;;;;6.28;5.68;;;11.10;99.90;;;;;;4988407;28;20210;-88
2023/05/03 00:59:17;;;;;;;7.60;4.45;;;11.10;99.90;;;;;;5006045;28;20211;-84
2023/05/03 01:01:49;;;;;;;7.63;4.35;;;11.00;99.90;;;;;;5014473;28;20207;-86
2023/05/03 01:04:18;;;;;;;6.07;4.43;;;11.00;99.90;;;;;;4989107;28;20292;-86
2023/05/03 01:07:00;;;;;;;7.97;4.68;;;11.00;99.90;;;;;;5008488;28;20201;-88
2023/05/03 01:09:55;;;;;;;5.15;4.20;;;11.00;99.90;;;;;;4985277;28;20209;-86
2023/05/03 01:12:53;;;;;;;10.07;4.57;;;11.10;99.90;;;;;;4999761;28;20205;-86
2023/05/03 01:15:52;;;;;;;9.25;3.63;;;11.10;99.90;;;;;;4989957;28;20206;-85
2023/05/03 01:18:25;;;;;;;4.50;4.13;;;11.10;99.90;;;;;;5016637;28;20280;-84
2023/05/03 01:20:53;;;;;;;7.75;3.90;;;11.00;99.90;;;;;;5011259;28;20264;-84
2023/05/03 01:23:55;;;;;;;5.25;3.90;;;11.00;99.90;;;;;;5013625;28;20256;-87
2023/05/03 01:26:23;;;;;;;5.97;3.55;;;10.90;99.90;;;;;;4970784;28;20458;-88
2023/05/03 01:28:50;;;;;;;4.55;3.60;;;10.90;99.90;;;;;;5015986;28;20202;-86
2023/05/03 01:31:28;;;;;;;7.30;4.70;;;10.90;99.90;;;;;;5018587;28;20229;-87
2023/05/03 01:34:16;;;;;;;8.80;3.65;;;10.90;99.90;;;;;;4999707;28;20201;-84
2023/05/03 01:36:44;;;;;;;11.23;3.40;;;10.90;99.90;;;;;;5008339;28;20264;-86
2023/05/03 01:39:53;;;;;;;10.35;4.35;;;10.90;99.90;;;;;;5012851;28;20427;-87
2023/05/03 01:42:20;;;;;;;3.88;3.45;;;10.90;99.90;;;;;;4976401;28;20217;-84
2023/05/03 01:50:03;;;;;;;5.15;4.10;;;11.00;99.90;;;;;;5291838;22;20226;-83
2023/05/03 01:52:32;;;;;;;3.90;3.33;;;11.10;99.90;;;;;;5028110;28;20213;-88
2023/05/03 01:55:00;;;;;;;10.75;3.95;;;11.00;99.90;;;;;;5350985;23;20237;-85
2023/05/03 01:57:26;;;;;;;8.30;3.72;;;11.00;99.90;;;;;;4986682;28;20244;-88
2023/05/03 01:59:53;;;;;;;5.53;3.63;;;10.90;99.90;;;;;;4986911;28;20199;-87
2023/05/03 02:02:21;;;;;;;5.75;3.90;;;10.90;99.90;;;;;;4973855;28;20266;-85
2023/05/03 02:04:48;;;;;;;7.10;4.47;;;10.90;99.90;;;;;;4983801;28;20202;-85
2023/05/03 02:07:17;;;;;;;5.45;3.45;;;10.70;99.90;;;;;;4994569;28;20221;-82
2023/05/03 02:09:50;;;;;;;3.78;3.47;;;10.70;99.90;;;;;;4989297;28;20490;-88
2023/05/03 02:12:17;;;;;;;8.45;3.92;;;10.70;99.90;;;;;;4970254;28;20199;-89
2023/05/03 02:14:44;;;;;;;6.13;3.92;;;10.60;99.90;;;;;;4972618;28;20221;-88
2023/05/03 02:17:11;;;;;;;9.20;3.90;;;10.40;99.90;;;;;;4985524;28;20210;-83
2023/05/03 02:19:37;;;;;;;6.20;4.65;;;10.40;99.90;;;;;;4983700;28;20488;-87
2023/05/03 02:22:05;;;;;;;6.25;3.50;;;10.30;99.90;;;;;;4982813;28;20202;-84
2023/05/03 02:24:35;;;;;;;7.10;3.53;;;10.20;99.90;;;;;;4983618;28;20245;-83
2023/05/03 02:27:03;;;;;;;5.65;3.90;;;10.20;99.90;;;;;;4982746;28;20441;-85
2023/05/03 02:29:30;;;;;;;6.43;4.22;;;10.00;99.90;;;;;;4983389;28;20647;-85
2023/05/03 02:31:57;;;;;;;7.65;4.60;;;9.90;99.90;;;;;;4966033;28;20238;-80
2023/05/03 02:34:26;;;;;;;10.45;4.03;;;9.80;99.90;;;;;;4966592;28;20208;-84
2023/05/03 02:36:53;;;;;;;7.25;3.40;;;9.80;99.90;;;;;;4965858;28;20209;-87
2023/05/03 02:39:20;;;;;;;11.43;3.97;;;9.70;99.90;;;;;;4984080;28;20224;-81
2023/05/03 02:41:47;;;;;;;8.55;4.55;;;9.60;99.90;;;;;;4987734;28;20441;-88
2023/05/03 02:44:14;;;;;;;4.53;3.63;;;9.60;99.90;;;;;;4990094;28;20205;-85
2023/05/03 02:46:41;;;;;;;10.48;4.15;;;9.60;99.90;;;;;;4985673;28;20280;-84
2023/05/03 02:49:08;;;;;;;3.40;2.95;;;9.50;99.90;;;;;;4986881;28;20207;-86
2023/05/03 02:51:35;;;;;;;8.63;3.50;;;9.40;99.90;;;;;;4984792;28;20275;-84
2023/05/03 02:54:03;;;;;;;6.40;3.97;;;9.30;99.90;;;;;;4982413;28;20375;-87
2023/05/03 02:56:30;;;;;;;7.10;4.53;;;9.10;99.90;;;;;;4984808;28;20515;-86
2023/05/03 02:58:58;;;;;;;9.63;4.05;;;9.00;99.90;;;;;;4951501;28;20504;-81
2023/05/03 03:01:26;;;;;;;6.65;4.00;;;8.90;99.90;;;;;;4990146;28;20223;-85
2023/05/03 03:03:54;;;;;;;6.85;4.18;;;8.70;99.90;;;;;;4985663;28;20575;-86
2023/05/03 03:06:22;;;;;;;6.70;3.83;;;8.60;99.90;;;;;;5102004;23;20288;-84
2023/05/03 03:08:51;;;;;;;11.77;4.50;;;8.50;99.90;;;;;;5004312;28;20225;-85
2023/05/03 03:11:18;;;;;;;14.40;5.93;;;8.50;99.90;;;;;;5006089;28;20234;-84
2023/05/03 03:13:45;;;;;;;4.32;3.92;;;8.30;99.90;;;;;;4985731;28;20499;-82
2023/05/03 03:16:12;;;;;;;5.35;4.45;;;8.30;99.90;;;;;;4987851;28;20213;-86
2023/05/03 03:18:40;;;;;;;5.55;4.30;;;8.30;99.90;;;;;;5002878;28;20530;-87
2023/05/03 03:21:09;;;;;;;10.05;4.88;;;8.30;99.90;;;;;;5004101;28;20207;-85
2023/05/03 03:23:38;;;;;;;9.23;5.18;;;8.40;99.90;;;;;;5001879;28;20255;-88
2023/05/03 03:26:05;;;;;;;9.45;5.57;;;8.50;99.90;;;;;;5001105;28;20253;-86
2023/05/03 03:28:34;;;;;;;7.00;4.63;;;8.40;99.90;;;;;;5003055;28;20534;-83
2023/05/03 03:31:01;;;;;;;8.77;4.45;;;8.60;99.90;;;;;;5005013;28;20265;-80
2023/05/03 03:33:28;;;;;;;7.28;5.20;;;8.60;99.90;;;;;;5012687;28;20240;-85
2023/05/03 03:35:55;;;;;;;6.82;4.65;;;8.70;99.90;;;;;;5002445;28;20250;-85
2023/05/03 03:38:22;;;;;;;7.07;4.85;;;8.60;99.90;;;;;;5000739;28;20231;-87
2023/05/03 03:40:49;;;;;;;5.53;5.03;;;8.60;99.90;;;;;;5000254;28;20214;-85
2023/05/03 03:43:15;;;;;;;9.77;4.93;;;8.50;99.90;;;;;;5001527;28;20271;-82
2023/05/03 03:45:42;;;;;;;7.63;4.03;;;8.50;99.90;;;;;;5000791;28;20211;-87
2023/05/03 03:48:12;;;;;;;8.20;4.80;;;8.40;99.90;;;;;;4984402;28;20253;-87
2023/05/03 03:50:40;;;;;;;7.90;4.25;;;8.40;99.90;;;;;;5000462;28;20240;-86
2023/05/03 03:53:09;;;;;;;7.25;5.30;;;8.40;99.90;;;;;;4999833;28;20219;-85
2023/05/03 03:55:36;;;;;;;9.93;5.20;;;8.40;99.90;;;;;;5001682;28;20246;-84
2023/05/03 03:58:04;;;;;;;8.32;4.85;;;8.20;99.90;;;;;;5001067;28;20515;-88
2023/05/03 04:00:33;;;;;;;11.02;3.85;;;8.20;99.90;;;;;;4983905;28;20202;-86
2023/05/03 04:02:59;;;;;;;6.95;4.07;;;8.20;99.90;;;;;;4966747;28;20299;-85
2023/05/03 04:05:26;;;;;;;6.38;4.40;;;8.20;99.90;;;;;;5001095;28;20709;-86
2023/05/03 04:07:53;;;;;;;5.63;4.00;;;8.10;99.90;;;;;;5000755;28;20207;-84
2023/05/03 04:10:20;;;;;;;9.57;3.97;;;8.00;99.90;;;;;;5000743;28;20217;-85
2023/05/03 04:12:47;;;;;;;4.70;4.28;;;8.10;99.90;;;;;;4999858;28;20210;-87
2023/05/03 04:15:17;;;;;;;4.65;3.72;;;8.10;99.90;;;;;;4984377;28;20241;-85
2023/05/03 04:17:44;;;;;;;4.80;4.30;;;8.10;99.90;;;;;;5008219;28;20206;-86
2023/05/03 04:20:12;;;;;;;7.75;4.35;;;8.20;99.90;;;;;;5013039;28;20204;-80
2023/05/03 04:22:40;;;;;;;11.48;5.20;;;8.30;99.90;;;;;;5004091;28;20384;-86
2023/05/03 04:25:15;;;;;;;11.02;3.95;;;8.30;99.90;;;;;;4999209;28;20206;-86
2023/05/03 04:27:44;;;;;;;9.25;5.80;;;8.40;99.90;;;;;;5007628;28;20244;-88
2023/05/03 04:30:14;;;;;;;9.27;4.68;;;8.50;99.90;;;;;;4989917;28;20214;-87
2023/05/03 04:32:42;;;;;;;5.38;3.70;;;8.60;99.90;;;;;;5005881;28;20234;-87
2023/05/03 04:35:11;;;;;;;4.50;3.75;;;8.90;99.90;;;;;;5005437;28;20206;-83
2023/05/03 04:37:41;;;;;;;10.15;5.07;;;8.80;99.90;;;;;;5005781;28;20204;-85
2023/05/03 04:40:11;;;;;;;9.93;4.75;;;9.00;99.90;;;;;;5010911;28;20199;-87
2023/05/03 04:42:38;;;;;;;5.00;4.22;;;9.10;99.90;;;;;;5013278;28;20205;-82
2023/05/03 04:45:08;;;;;;;7.78;4.70;;;9.20;99.90;;;;;;5019889;28;20209;-82
2023/05/03 04:47:35;;;;;;;5.65;4.30;;;9.10;99.90;;;;;;5012960;28;20207;-84
2023/05/03 04:50:03;;;;;;;4.18;3.78;;;9.10;99.90;;;;;;5013524;28;20201;-84
2023/05/03 04:52:30;;;;;;;6.90;3.88;;;8.90;99.90;;;;;;4987419;28;20284;-87
2023/05/03 04:54:57;;;;;;;12.73;4.30;;;8.70;99.90;;;;;;5004322;28;20199;-83
2023/05/03 04:57:25;;;;;;;5.20;4.05;;;8.90;99.90;;;;;;4987835;28;20212;-88
2023/05/03 04:59:52;;;;;;;12.13;5.85;;;9.30;99.90;;;;;;5004895;28;20753;-87
2023/05/03 05:02:21;;;;;;;4.85;4.35;;;9.80;99.90;;;;;;5006096;28;20256;-84
2023/05/03 05:04:48;;;;;;;6.70;3.30;;;10.20;99.90;;;;;;5002784;28;20209;-89
2023/05/03 05:07:17;;;;;;;9.95;3.83;;;10.30;99.90;;;;;;5007192;28;20208;-85
2023/05/03 05:09:46;;;;;;;3.88;3.10;;;10.30;99.90;;;;;;4989718;28;20206;-88
2023/05/03 05:12:14;;;;;;;7.43;3.80;;;10.30;99.90;;;;;;5006350;28;20240;-87
2023/05/03 05:14:42;;;;;;;11.02;4.38;;;10.30;99.90;;;;;;5006718;28;20225;-86
2023/05/03 05:17:09;;;;;;;4.85;4.07;;;10.20;99.90;;;;;;4988205;28;20205;-84
2023/05/03 05:19:36;;;;;;;6.88;3.88;;;10.00;99.90;;;;;;5004025;28;20201;-84
2023/05/03 05:22:03;;;;;;;8.35;4.63;;;10.00;99.90;;;;;;5009712;28;20211;-83
2023/05/03 05:24:30;;;;;;;6.22;3.75;;;10.10;99.90;;;;;;4995580;28;20241;-84
2023/05/03 05:26:57;;;;;;;5.05;4.55;;;10.30;99.90;;;;;;5006021;28;20417;-86
2023/05/03 05:29:24;;;;;;;3.58;3.28;;;10.30;99.90;;;;;;5014260;28;20293;-85
2023/05/03 05:31:51;;;;;;;5.00;3.70;;;10.30;99.90;;;;;;5016950;28;20251;-85
2023/05/03 05:34:20;;;;;;;4.85;3.55;;;10.50;99.90;;;;;;5008996;28;20240;-84
2023/05/03 05:36:47;;;;;;;6.15;3.70;;;10.70;99.90;;;;;;5006796;28;20242;-83
2023/05/03 05:39:14;;;;;;;4.93;4.15;;;10.90;99.90;;;;;;5005365;28;20208;-83
2023/05/03 05:41:41;;;;;;;7.90;4.60;;;11.00;99.90;;;;;;4996061;28;20236;-82
2023/05/03 05:44:08;;;;;;;4.72;4.28;;;11.30;99.90;;;;;;4994470;28;20226;-80
2023/05/03 05:46:35;;;;;;;5.70;3.30;;;11.10;99.90;;;;;;5004620;28;20217;-86
2023/05/03 05:49:02;;;;;;;5.88;4.00;;;10.90;99.90;;;;;;5003316;28;20228;-82
2023/05/03 05:51:30;;;;;;;4.25;3.38;;;10.80;99.90;;;;;;5003628;28;20268;-83
2023/05/03 05:53:59;;;;;;;3.65;3.35;;;11.00;99.90;;;;;;5003862;28;20220;-81
2023/05/03 05:56:26;;;;;;;5.28;3.60;;;11.20;99.90;;;;;;5002551;28;20218;-82
2023/05/03 05:58:59;;;;;;;9.82;3.67;;;11.40;99.90;;;;;;5006493;28;20202;-81
2023/05/03 06:01:26;;;;;;;3.60;3.30;;;11.40;99.90;;;;;;5002659;28;20212;-81
2023/05/03 06:03:55;;;;;;;7.47;4.05;;;11.50;99.90;;;;;;5003440;28;20241;-84
2023/05/03 06:06:22;;;;;;;6.55;4.32;;;11.50;99.90;;;;;;5004133;28;20214;-81
2023/05/03 06:08:50;;;;;;;5.25;3.67;;;11.70;99.90;;;;;;5003349;28;20210;-81
2023/05/03 06:11:17;;;;;;;5.22;3.22;;;11.80;99.90;;;;;;5003708;28;20269;-84
2023/05/03 06:13:44;;;;;;;5.95;3.50;;;11.90;99.90;;;;;;5004058;28;20206;-80
2023/05/03 06:16:12;;;;;;;10.63;4.03;;;11.80;99.90;;;;;;5009222;28;20212;-84
2023/05/03 06:18:39;;;;;;;6.82;4.07;;;11.80;99.90;;;;;;5006179;28;20518;-82
2023/05/03 06:21:06;;;;;;;12.43;3.95;;;11.90;99.90;;;;;;4992350;28;20206;-82
2023/05/03 06:23:34;;;;;;;4.05;3.60;;;11.90;99.90;;;;;;5011116;28;20206;-83
2023/05/03 06:26:01;;;;;;;6.25;3.95;;;12.10;99.90;;;;;;5005174;28;20198;-81
2023/05/03 06:28:28;;;;;;;8.77;4.32;;;12.40;99.90;;;;;;5006015;28;20208;-82
2023/05/03 06:30:55;;;;;;;8.57;3.92;;;12.10;99.90;;;;;;4986790;28;20293;-78
2023/05/03 06:33:22;;;;;;;7.70;4.68;;;12.20;99.90;;;;;;5002035;28;20239;-84
2023/05/03 06:35:50;;;;;;;8.05;3.85;;;12.00;99.90;;;;;;5001192;28;20268;-82
2023/05/03 06:38:17;;;;;;;6.35;4.70;;;12.20;99.90;;;;;;5001746;28;20210;-81
2023/05/03 06:40:46;;;;;;;11.13;4.10;;;12.30;99.90;;;;;;4987021;28;20220;-81
2023/05/03 06:43:13;;;;;;;6.18;4.80;;;12.30;99.90;;;;;;5004501;28;20275;-81
2023/05/03 06:45:42;;;;;;;7.78;4.70;;;12.30;99.90;;;;;;5003727;28;20221;-82
2023/05/03 06:48:09;;;;;;;5.72;4.63;;;12.30;99.90;;;;;;5000060;28;20198;-81
2023/05/03 06:50:36;;;;;;;3.67;3.35;;;12.80;99.90;;;;;;4989972;28;20201;-79
2023/05/03 06:53:03;;;;;;;7.78;3.50;;;13.10;99.90;;;;;;4998812;28;20232;-83
2023/05/03 06:55:32;;;;;;;3.20;2.90;;;13.20;99.90;;;;;;5007704;28;20248;-84
2023/05/03 06:57:59;;;;;;;4.55;3.47;;;13.60;99.90;;;;;;5003465;28;20662;-79
2023/05/03 07:00:26;;;;;;;7.07;2.85;;;13.60;99.90;;;;;;5001358;28;20209;-82
2023/05/03 07:02:55;;;;;;;4.97;3.15;;;13.30;99.90;;;;;;5001336;28;20214;-79
2023/05/03 07:05:22;;;;;;;4.28;2.85;;;13.10;99.90;;;;;;5001277;28;20522;-85
2023/05/03 07:07:49;;;;;;;3.75;3.08;;;13.20;99.90;;;;;;4983971;28;20414;-82
2023/05/03 07:10:16;;;;;;;5.97;5.07;;;13.30;99.90;;;;;;5001252;28;20201;-82
2023/05/03 07:12:43;;;;;;;4.50;2.75;;;13.40;99.90;;;;;;4983270;28;20254;-83
2023/05/03 07:15:09;;;;;;;3.53;2.83;;;13.50;99.90;;;;;;5005626;28;20497;-83
2023/05/03 07:17:36;;;;;;;12.60;3.58;;;13.90;99.90;;;;;;5002291;28;20198;-85
2023/05/03 07:20:05;;;;;;;5.93;3.33;;;14.70;99.90;;;;;;5001327;28;20237;-84
2023/05/03 07:22:33;;;;;;;3.90;3.37;;;15.80;99.90;;;;;;4966501;28;20497;-84
2023/05/03 07:25:00;;;;;;;5.53;3.50;;;16.30;99.90;;;;;;5000820;28;20454;-84
2023/05/03 07:27:29;;;;;;;5.90;3.73;;;16.60;99.90;;;;;;5003395;28;20775;-81
2023/05/03 07:29:57;;;;;;;7.20;3.13;;;16.80;99.90;;;;;;4989491;28;20631;-86
2023/05/03 07:32:25;;;;;;;4.20;3.30;;;16.80;99.90;;;;;;5007342;28;20465;-85
2023/05/03 07:34:52;;;;;;;3.10;2.27;;;17.40;99.90;;;;;;5003948;28;20465;-85
2023/05/03 07:37:20;;;;;;;10.20;3.50;;;17.90;99.90;;;;;;5007932;28;20487;-84
2023/05/03 07:39:48;;;;;;;3.87;2.43;;;17.40;99.90;;;;;;4981773;28;20472;-84
2023/05/03 07:42:23;;;;;;;2.50;2.30;;;16.60;99.90;;;;;;5005649;28;20453;-84
2023/05/03 07:44:51;;;;;;;4.80;2.50;;;15.80;99.90;;;;;;4987860;28;20445;-87
2023/05/03 07:47:19;;;;;;;15.47;3.90;;;15.40;99.90;;;;;;5002977;28;20498;-84
2023/05/03 07:49:47;;;;;;;4.27;2.13;;;15.00;99.90;;;;;;4985936;28;20448;-84
2023/05/03 07:52:13;;;;;;;5.33;2.37;;;15.00;99.90;;;;;;5005612;28;20829;-83
2023/05/03 07:54:48;;;;;;;2.93;2.20;;;15.60;99.90;;;;;;5004511;28;20477;-82
2023/05/03 07:57:16;;;;;;;4.10;2.53;;;15.10;99.90;;;;;;5006486;28;20475;-82
2023/05/03 07:59:43;;;;;;;2.40;2.07;;;15.80;99.90;;;;;;4991407;28;20462;-86
2023/05/03 08:02:10;;;;;;;3.20;2.60;;;16.40;99.90;;;;;;5007696;28;20455;-85
2023/05/03 08:04:37;;;;;;;5.30;2.40;;;16.50;99.90;;;;;;4992244;28;20470;-81
2023/05/03 08:07:04;;;;;;;3.00;2.50;;;18.20;99.90;;;;;;4996245;28;20450;-83
2023/05/03 08:09:31;;;;;;;3.70;2.60;;;19.50;97.80;;;;;;5005291;28;20491;-83
2023/05/03 08:12:01;;;;;;;6.80;3.77;;;20.10;97.30;;;;;;4998824;28;20529;-83
2023/05/03 08:14:28;;;;;;;5.50;3.67;;;22.10;85.20;;;;;;4987781;28;20475;-83
2023/05/03 08:16:56;;;;;;;2.63;2.37;;;21.30;84.50;;;;;;5006679;28;20470;-88
2023/05/03 08:19:24;;;;;;;4.03;2.20;;;20.80;87.00;;;;;;5017137;28;20717;-85
2023/05/03 08:21:54;;;;;;;2.70;1.57;;;19.90;87.70;;;;;;5007207;28;20448;-83
2023/05/03 08:24:22;;;;;;;3.27;2.97;;;18.60;90.70;;;;;;5006026;28;20447;-86
2023/05/03 08:26:50;;;;;;;4.60;2.30;;;17.40;93.70;;;;;;5007259;28;20485;-81
2023/05/03 08:29:21;;;;;;;3.53;2.37;;;16.30;97.10;;;;;;5009199;28;20453;-83
2023/05/03 08:31:47;;;;;;;3.03;2.67;;;15.60;99.80;;;;;;5007848;28;20456;-82
2023/05/03 08:34:15;;;;;;;2.60;2.33;;;15.80;99.90;;;;;;5005334;28;20561;-81
2023/05/03 08:36:43;;;;;;;3.00;2.10;;;15.90;99.90;;;;;;5013048;28;20460;-83
2023/05/03 08:39:10;;;;;;;1.90;1.70;;;16.10;99.90;;;;;;4985941;28;20450;-85
2023/05/03 08:41:40;;;;;;;2.50;2.10;;;16.50;99.90;;;;;;4991968;28;20555;-84
2023/05/03 08:44:10;;;;;;;3.20;2.10;;;17.20;99.40;;;;;;4994074;28;20450;-85
2023/05/03 08:46:38;;;;;;;5.77;2.37;;;20.40;92.20;;;;;;5008156;28;20831;-81
2023/05/03 08:49:08;;;;;;;3.00;2.70;;;21.00;78.50;;;;;;4984946;28;20466;-82
2023/05/03 08:51:40;;;;;;;6.93;3.07;;;20.00;80.10;;;;;;4992466;28;20453;-79
2023/05/03 08:54:10;;;;;;;2.67;2.20;;;20.80;75.70;;;;;;4980088;28;20457;-85
2023/05/03 08:56:46;;;;;;;2.70;2.30;;;22.30;68.50;;;;;;4992069;28;20478;-83
2023/05/03 08:59:16;;;;;;;5.00;2.53;;;20.90;71.60;;;;;;5009596;28;20437;-81
2023/05/03 09:01:47;;;;;;;3.33;3.03;;;22.00;70.00;;;;;;5007698;28;20643;-85
2023/05/03 09:04:16;;;;;;;2.37;1.90;;;21.90;63.80;;;;;;4985783;28;20455;-83
2023/05/03 09:06:43;;;;;;;5.43;2.77;;;19.40;72.50;;;;;;4981671;28;20453;-82
2023/05/03 09:09:10;;;;;;;5.57;2.30;;;17.80;81.80;;;;;;4988296;28;20540;-82
2023/05/03 09:11:38;;;;;;;5.63;2.93;;;16.30;91.60;;;;;;4999229;28;20729;-82
2023/05/03 09:14:16;;;;;;;4.50;2.60;;;15.70;96.00;;;;;;5006670;28;20522;-82
2023/05/03 09:16:45;;;;;;;2.83;2.00;;;16.50;96.40;;;;;;4985439;28;20437;-87
2023/05/03 09:19:15;;;;;;;2.67;2.47;;;17.90;92.80;;;;;;4990427;28;20810;-84
2023/05/03 09:21:45;;;;;;;5.47;3.30;;;18.90;89.20;;;;;;4993458;28;20478;-86
2023/05/03 09:24:21;;;;;;;2.97;2.40;;;20.40;82.80;;;;;;4999184;28;20486;-84
2023/05/03 09:26:50;;;;;;;3.53;2.83;;;20.40;78.70;;;;;;4983465;28;20527;-85
2023/05/03 09:29:33;;;;;;;2.87;2.67;;;18.90;83.20;;;;;;5001500;28;20467;-81
2023/05/03 09:32:04;;;;;;;3.20;2.70;;;16.60;92.20;;;;;;5011917;28;20436;-87
2023/05/03 09:34:35;;;;;;;2.60;2.10;;;15.90;97.50;;;;;;5021834;28;20449;-84
2023/05/03 09:37:02;;;;;;;4.27;2.47;;;15.60;97.70;;;;;;5025092;28;20540;-86
2023/05/03 09:39:30;;;;;;;2.53;1.97;;;15.50;99.60;;;;;;5011976;28;20452;-85
2023/05/03 09:41:57;;;;;;;2.80;2.30;;;15.70;99.50;;;;;;5010990;28;20448;-83
2023/05/03 09:44:47;;;;;;;4.50;2.30;;;16.10;97.90;;;;;;5012703;28;20466;-83
2023/05/03 09:47:17;;;;;;;7.60;2.90;;;16.50;99.30;;;;;;4974820;28;20669;-82
2023/05/03 09:49:48;;;;;;;2.97;2.70;;;16.70;95.70;;;;;;5015465;28;20901;-81
2023/05/03 09:52:16;;;;;;;2.80;2.13;;;16.70;95.70;;;;;;5010226;28;20466;-85
2023/05/03 09:54:44;;;;;;;3.70;2.70;;;17.00;95.30;;;;;;4995888;28;20703;-81
2023/05/03 09:57:19;;;;;;;3.17;1.93;;;17.10;93.90;;;;;;5005129;28;20456;-84
2023/05/03 09:59:49;;;;;;;12.10;2.73;;;17.30;94.80;;;;;;5001542;28;20454;-83
2023/05/03 10:02:17;;;;;;;2.37;2.03;;;16.80;97.00;;;;;;4987601;28;20439;-85
2023/05/03 10:04:55;;;;;;;2.73;2.53;;;16.30;97.70;;;;;;5010525;28;20424;-85
2023/05/03 10:07:27;;;;;;;5.47;2.10;;;15.70;99.80;;;;;;5025759;28;20438;-83
2023/05/03 10:09:56;;;;;;;2.40;2.20;;;15.30;99.90;;;;;;5018727;28;20639;-84
2023/05/03 10:12:26;;;;;;;4.43;3.33;;;15.00;99.90;;;;;;4990299;28;20465;-83
2023/05/03 10:14:55;;;;;;;2.63;2.43;;;14.80;99.90;;;;;;5004849;28;20471;-86
2023/05/03 10:17:33;;;;;;;4.70;3.70;;;15.10;99.90;;;;;;4995926;28;20483;-85
2023/05/03 10:20:32;;;;;;;3.03;2.30;;;15.40;99.90;;;;;;5016409;28;20468;-86
2023/05/03 10:23:05;;;;;;;2.43;2.10;;;15.80;99.90;;;;;;5008811;28;20414;-82
2023/05/03 10:25:35;;;;;;;2.47;1.80;;;15.70;99.90;;;;;;5012774;28;20456;-86
2023/05/03 10:28:04;;;;;;;4.90;2.60;;;15.20;99.90;;;;;;5018327;28;20498;-85
2023/05/03 10:30:39;;;;;;;3.00;2.80;;;15.10;99.90;;;;;;5009814;28;20444;-87
2023/05/03 10:33:12;;;;;;;2.33;2.13;;;15.10;99.90;;;;;;4988141;28;20500;-87
2023/05/03 10:35:47;;;;;;;2.60;2.23;;;15.10;99.90;;;;;;5008014;28;20467;-89
2023/05/03 10:38:16;;;;;;;4.40;2.00;;;15.00;99.90;;;;;;4999885;28;20498;-82
2023/05/03 10:40:43;;;;;;;4.03;2.33;;;15.60;99.90;;;;;;5014322;28;20445;-82
2023/05/03 10:43:31;;;;;;;6.07;2.40;;;16.20;98.50;;;;;;4992997;28;20442;-85
2023/05/03 10:46:31;;;;;;;2.47;1.90;;;16.20;98.30;;;;;;5018601;28;20521;-85
2023/05/03 10:49:19;;;;;;;4.20;3.90;;;15.40;99.90;;;;;;5002245;28;20470;-83
2023/05/03 10:51:50;;;;;;;2.80;2.37;;;15.00;99.90;;;;;;5005313;28;20505;-84
2023/05/03 10:54:18;;;;;;;5.33;2.50;;;15.20;99.90;;;;;;4991105;28;20597;-81
2023/05/03 10:56:55;;;;;;;4.93;2.67;;;15.30;99.90;;;;;;5008963;28;20461;-84
2023/05/03 10:59:24;;;;;;;2.50;2.30;;;14.90;99.90;;;;;;5007837;28;20437;-83
2023/05/03 11:01:53;;;;;;;3.60;2.63;;;14.50;99.90;;;;;;5002166;28;20568;-84
2023/05/03 11:04:34;;;;;;;2.90;2.30;;;14.60;99.90;;;;;;4994754;28;20482;-82
2023/05/03 11:07:01;;;;;;;4.17;3.00;;;14.30;99.90;;;;;;4984536;28;20455;-86
2023/05/03 11:09:34;;;;;;;3.77;3.47;;;14.50;99.90;;;;;;5009868;28;20460;-87
2023/05/03 11:12:08;;;;;;;5.30;2.30;;;14.40;99.90;;;;;;5016129;28;20458;-84
2023/05/03 11:14:38;;;;;;;2.60;2.40;;;14.40;99.90;;;;;;5011150;28;20475;-84
2023/05/03 11:17:05;;;;;;;9.30;3.60;;;14.50;99.90;;;;;;4999371;28;20454;-83
2023/05/03 11:19:34;;;;;;;3.57;2.80;;;14.40;99.90;;;;;;5019690;28;20445;-84
2023/05/03 11:22:01;;;;;;;4.40;2.77;;;14.10;99.90;;;;;;5000081;28;20445;-84
2023/05/03 11:24:29;;;;;;;2.33;2.03;;;14.10;99.90;;;;;;5024709;28;20475;-82
2023/05/03 11:26:56;;;;;;;4.00;3.00;;;14.30;99.90;;;;;;5014980;28;20481;-86
2023/05/03 11:29:26;;;;;;;3.30;2.13;;;14.30;99.90;;;;;;5021329;28;20229;-86
2023/05/03 11:31:54;;;;;;;3.70;3.20;;;14.60;99.90;;;;;;5020545;28;20725;-83
2023/05/03 11:34:21;;;;;;;4.93;2.40;;;14.60;99.90;;;;;;5020566;28;20484;-84
2023/05/03 11:36:48;;;;;;;5.60;2.63;;;14.50;99.90;;;;;;4988956;28;20507;-83
2023/05/03 11:39:15;;;;;;;2.10;1.90;;;14.60;99.90;;;;;;5006332;28;20454;-84
2023/05/03 11:42:01;;;;;;;4.17;2.80;;;14.90;99.90;;;;;;5008102;28;20829;-84
2023/05/03 11:44:31;;;;;;;3.80;3.20;;;15.20;99.90;;;;;;5010374;28;20488;-85
2023/05/03 11:47:00;;;;;;;3.53;2.50;;;15.30;99.90;;;;;;5005560;28;20611;-84
2023/05/03 11:49:29;;;;;;;3.80;2.57;;;15.30;99.90;;;;;;5020585;28;20410;-83
2023/05/03 11:51:56;;;;;;;6.90;3.13;;;15.50;99.90;;;;;;5013382;28;20437;-84
2023/05/03 11:54:25;;;;;;;6.63;2.70;;;15.30;99.90;;;;;;5011541;28;20492;-84
2023/05/03 11:56:57;;;;;;;2.67;2.47;;;15.30;99.90;;;;;;5000691;28;20417;-83
2023/05/03 11:59:37;;;;;;;5.17;3.00;;;15.40;99.90;;;;;;5017995;28;20471;-83
2023/05/03 12:02:08;;;;;;;3.07;2.77;;;15.40;99.90;;;;;;5013948;28;20466;-84
2023/05/03 12:04:41;;;;;;;4.93;2.43;;;15.50;99.90;;;;;;5002017;28;20414;-82
2023/05/03 12:07:13;;;;;;;2.83;2.63;;;15.30;99.90;;;;;;4977904;28;20487;-84
2023/05/03 12:09:46;;;;;;;6.80;2.30;;;15.30;99.90;;;;;;5004104;28;20418;-84
2023/05/03 12:12:37;;;;;;;3.77;2.70;;;15.10;99.90;;;;;;5005176;28;20434;-85
2023/05/03 12:15:13;;;;;;;4.13;2.23;;;14.70;99.90;;;;;;5003653;28;20754;-89
2023/05/03 12:17:43;;;;;;;2.35;2.13;;;14.40;99.90;;;;;;5000882;28;20486;-86
2023/05/03 12:20:17;;;;;;;2.80;2.00;;;14.30;99.90;;;;;;4987442;28;20233;-85
2023/05/03 12:22:52;;;;;;;3.90;2.23;;;14.00;99.90;;;;;;4989837;28;20489;-87
2023/05/03 12:25:27;;;;;;;2.63;2.10;;;14.20;99.90;;;;;;5002912;28;20742;-86
2023/05/03 12:28:04;;;;;;;6.03;2.53;;;14.40;99.90;;;;;;4985697;28;20475;-87
2023/05/03 12:30:49;;;;;;;6.77;3.13;;;14.80;99.90;;;;;;5000415;28;20447;-82
2023/05/03 12:33:20;;;;;;;6.30;2.70;;;14.90;99.90;;;;;;5002668;28;20438;-86
2023/05/03 12:35:50;;;;;;;2.00;1.90;;;15.00;99.90;;;;;;5000117;28;20444;-88
2023/05/03 12:38:22;;;;;;;4.00;2.33;;;15.20;99.90;;;;;;5002834;28;20446;-86
2023/05/03 12:40:52;;;;;;;10.83;2.90;;;15.40;99.90;;;;;;5003339;28;20500;-84
2023/05/03 12:43:20;;;;;;;3.40;1.97;;;15.40;99.90;;;;;;4988499;28;20506;-84
2023/05/03 12:45:47;;;;;;;5.40;2.40;;;15.30;99.90;;;;;;5009273;28;20426;-84
2023/05/03 12:48:35;;;;;;;3.10;2.57;;;15.50;99.90;;;;;;5014489;28;20422;-84
2023/05/03 12:51:03;;;;;;;4.87;2.30;;;15.30;99.90;;;;;;4991363;28;20447;-84
2023/05/03 12:53:46;;;;;;;5.50;2.97;;;15.40;99.90;;;;;;5007641;28;20489;-85
2023/05/03 12:56:15;;;;;;;2.10;1.90;;;15.60;99.90;;;;;;5015165;28;20498;-84
2023/05/03 12:58:43;;;;;;;2.60;2.40;;;15.50;99.90;;;;;;4992980;28;20522;-88
2023/05/03 13:01:31;;;;;;;6.87;2.50;;;15.20;99.90;;;;;;5004107;28;20427;-87
2023/05/03 13:04:02;;;;;;;3.73;2.10;;;15.00;99.90;;;;;;5015491;28;20555;-85
2023/05/03 13:06:32;;;;;;;3.50;2.20;;;14.70;99.90;;;;;;4997828;28;20524;-84
2023/05/03 13:09:08;;;;;;;6.27;2.30;;;14.70;99.90;;;;;;5002638;28;20430;-86